In Rescue
 
Open Full Screen Window  High Contrast Mode
October 03, 2023 10:22 PM EDT
Weather Information
Wind Direction
  ---
Wind Speed
  00 kt (0 mph)
Wind Gust
  00 kt (0 mph)
Altimeter
30.10 in
Visibility
10 SM
Temperature
19° C
66° F
Dewpoint
14° C
57° F
Humidity
73%
Sky Condition
Clear
VFR

METAR KCFS 040222Z AUTO 00000KT 10SM CLR 19/14 A3010 RMK AO2 T01860144

FAA Disclaimer: The data displayed is for advisory purposes only and is not to be used for flight planning or operations.